createdAt,value
2023-01-13T05:03:20.937Z,0.30
2023-01-13T05:07:23.441Z,0.35
2023-01-13T05:11:43.863Z,0.40
2023-01-13T05:16:18.837Z,0.20
2023-01-13T05:20:22.742Z,0.30
2023-01-13T05:24:42.733Z,0.45
2023-01-13T05:28:45.211Z,0.40
2023-01-13T05:32:47.721Z,0.47
2023-01-13T05:36:51.531Z,0.52
2023-01-13T05:41:11.258Z,1.02
2023-01-13T05:45:13.817Z,0.50
2023-01-13T05:49:16.306Z,0.50
2023-01-13T05:53:21.159Z,0.30
2023-01-13T05:57:23.632Z,0.75
2023-01-13T06:01:26.165Z,0.75
2023-01-13T06:05:28.833Z,0.50
2023-01-13T06:09:33.600Z,0.50
2023-01-13T06:13:36.131Z,0.47
2023-01-13T06:17:38.720Z,0.63
2023-01-13T06:21:41.609Z,0.40
2023-01-13T06:25:52.883Z,0.57
2023-01-13T06:29:56.531Z,0.65
2023-01-13T06:34:03.604Z,0.57
2023-01-13T06:38:11.231Z,0.60
2023-01-13T06:42:33.937Z,0.32
2023-01-13T06:46:36.644Z,0.95
2023-01-13T06:50:39.292Z,0.43
2023-01-13T06:54:41.753Z,0.40
2023-01-13T06:58:45.540Z,0.65
2023-01-13T07:02:48.389Z,0.80
2023-01-13T07:06:50.903Z,0.57
2023-01-13T07:10:54.173Z,0.90
2023-01-13T07:15:15.723Z,0.98
2023-01-13T07:19:23.198Z,0.93
2023-01-13T07:23:26.590Z,0.45
2023-01-13T07:27:29.107Z,0.80
2023-01-13T07:31:32.931Z,0.50
2023-01-13T07:35:35.448Z,0.75
2023-01-13T07:39:37.915Z,0.55
2023-01-13T07:43:40.381Z,0.65
2023-01-13T07:47:44.199Z,0.50
2023-01-13T07:51:46.701Z,0.63
2023-01-13T07:55:49.634Z,0.47
2023-01-13T07:59:52.146Z,0.93
2023-01-13T08:03:56.066Z,0.68
2023-01-13T08:07:58.577Z,0.70
2023-01-13T08:12:15.042Z,0.68
2023-01-13T08:16:17.676Z,0.80
2023-01-13T08:20:21.680Z,1.03
2023-01-13T08:24:24.203Z,0.60
2023-01-13T08:28:26.912Z,1.08
2023-01-13T08:32:29.481Z,0.67
2023-01-13T08:36:33.299Z,0.82
2023-01-13T08:40:36.440Z,1.02
2023-01-13T08:44:38.916Z,0.70
2023-01-13T08:48:41.366Z,1.10
2023-01-13T08:52:45.191Z,0.70
2023-01-13T08:56:48.097Z,0.80
2023-01-13T09:00:50.666Z,0.63
2023-01-13T09:04:53.419Z,0.80
2023-01-13T09:08:57.275Z,1.00
2023-01-13T09:13:14.636Z,0.85
2023-01-13T09:17:17.266Z,0.85
2023-01-13T09:21:21.040Z,0.90
2023-01-13T09:25:24.865Z,0.90
2023-01-13T09:29:27.503Z,0.63
2023-01-13T09:33:47.413Z,0.90
2023-01-13T09:37:49.872Z,0.90
2023-01-13T09:42:14.563Z,1.30
2023-01-13T09:46:53.601Z,0.68
2023-01-13T09:51:04.147Z,0.73
2023-01-13T09:55:12.792Z,1.02
2023-01-13T09:59:17.059Z,1.02
2023-01-13T10:03:23.240Z,1.08
2023-01-13T10:07:30.458Z,0.80
2023-01-13T10:11:54.086Z,0.98
2023-01-13T10:16:06.697Z,0.95
2023-01-13T10:20:19.422Z,0.98
2023-01-13T10:24:34.611Z,1.03
2023-01-13T10:28:37.123Z,1.02
2023-01-13T10:32:43.877Z,1.70
2023-01-13T10:36:58.831Z,0.95
2023-01-13T10:41:03.231Z,1.00
2023-01-13T10:45:07.936Z,0.88
2023-01-13T10:49:28.267Z,1.25
2023-01-13T10:53:31.051Z,0.85
2023-01-13T10:57:37.503Z,1.00
2023-01-13T11:01:43.143Z,0.98
2023-01-13T11:05:54.823Z,1.05
2023-01-13T11:10:12.464Z,1.25
2023-01-13T11:14:40.396Z,0.90
2023-01-13T11:19:02.253Z,1.02
2023-01-13T11:23:15.422Z,1.23
2023-01-13T11:27:23.479Z,1.05
2023-01-13T11:31:31.576Z,1.33
2023-01-13T11:35:38.825Z,0.90
2023-01-13T11:39:50.236Z,0.73
2023-01-13T11:43:56.428Z,1.10
2023-01-13T11:48:02.186Z,1.10
2023-01-13T11:52:10.211Z,1.00
2023-01-13T11:56:29.219Z,1.38
2023-01-13T12:00:41.831Z,0.93
2023-01-13T12:04:55.263Z,0.90
2023-01-13T12:09:23.747Z,0.80
2023-01-13T12:13:36.006Z,1.05
2023-01-13T12:17:47.488Z,1.00
2023-01-13T12:22:00.126Z,1.30
2023-01-13T12:26:07.728Z,1.02
2023-01-13T12:30:24.670Z,1.90
2023-01-13T12:34:37.422Z,1.00
2023-01-13T12:38:47.277Z,0.90
2023-01-13T12:43:14.095Z,0.95
2023-01-13T12:47:36.826Z,0.90
2023-01-13T12:52:13.912Z,0.70
2023-01-13T12:56:40.087Z,1.02
2023-01-13T13:01:13.335Z,1.17
2023-01-13T13:05:42.577Z,1.10
2023-01-13T13:09:50.289Z,1.05
2023-01-13T13:13:52.829Z,1.08
2023-01-13T13:18:24.269Z,1.10
2023-01-13T13:22:51.135Z,1.50
2023-01-13T13:26:53.799Z,1.25
2023-01-13T13:31:14.298Z,1.60
2023-01-13T13:35:34.752Z,1.20
2023-01-13T13:40:00.703Z,1.10
2023-01-13T13:44:26.644Z,1.50
2023-01-13T13:48:30.893Z,1.20
2023-01-13T13:52:39.133Z,1.02
2023-01-13T13:56:46.051Z,1.40
2023-01-13T14:00:49.571Z,1.10
2023-01-13T14:08:54.507Z,1.33
2023-01-13T14:13:00.596Z,1.20
2023-01-13T14:17:05.620Z,1.17
2023-01-13T14:21:20.676Z,0.90
2023-01-13T14:25:31.923Z,1.17
2023-01-13T14:29:36.171Z,1.10
2023-01-13T14:33:42.273Z,1.15
2023-01-13T14:37:48.895Z,1.27
2023-01-13T14:41:52.969Z,1.10
2023-01-13T14:45:59.505Z,1.17
2023-01-13T14:50:05.065Z,1.50
2023-01-13T14:54:42.883Z,1.38
2023-01-13T14:58:45.585Z,2.08
2023-01-13T15:03:00.474Z,1.77
2023-01-13T15:07:03.854Z,2.10
2023-01-13T15:11:17.422Z,1.50
2023-01-13T15:15:23.966Z,1.30
2023-01-13T15:19:27.911Z,1.63
2023-01-13T15:23:30.410Z,1.60
2023-01-13T15:27:32.934Z,1.52
2023-01-13T15:31:35.434Z,0.98
2023-01-13T15:35:42.196Z,1.70
2023-01-13T15:39:44.753Z,1.65
2023-01-13T15:44:04.618Z,2.22
2023-01-13T15:48:07.246Z,1.00
2023-01-13T15:52:19.971Z,1.33
2023-01-13T15:56:25.412Z,1.60
2023-01-13T16:00:28.362Z,1.60
2023-01-13T16:04:30.881Z,1.20
2023-01-13T16:08:34.897Z,1.60
2023-01-13T16:12:38.019Z,1.10
2023-01-13T16:16:40.719Z,1.80
2023-01-13T16:20:43.707Z,0.93
2023-01-13T16:24:48.238Z,1.00
2023-01-13T16:28:52.363Z,1.00
2023-01-13T16:32:55.186Z,0.85
2023-01-13T16:36:57.682Z,1.20
2023-01-13T16:41:01.631Z,1.05
2023-01-13T16:45:08.361Z,0.63
2023-01-13T16:49:12.696Z,0.90
2023-01-13T16:53:15.223Z,1.00
2023-01-13T16:57:19.143Z,0.80
2023-01-13T17:01:25.390Z,1.30
2023-01-13T17:05:28.010Z,1.00
2023-01-13T17:09:31.206Z,0.75
2023-01-13T17:13:35.028Z,1.10
2023-01-13T17:17:37.629Z,0.80
2023-01-13T17:21:40.115Z,1.50
2023-01-13T17:25:43.308Z,1.30
2023-01-13T17:29:47.460Z,1.08
2023-01-13T17:33:49.985Z,1.25
2023-01-13T17:37:52.587Z,1.45
2023-01-13T17:41:55.875Z,1.40
2023-01-13T17:45:59.794Z,1.27
2023-01-13T17:50:03.996Z,1.38
2023-01-13T17:54:06.779Z,1.48
2023-01-13T17:58:09.244Z,1.20
2023-01-13T18:02:14.336Z,1.17
2023-01-13T18:06:19.086Z,1.17
2023-01-13T18:10:21.570Z,1.40
2023-01-13T18:14:24.460Z,1.40
2023-01-13T18:18:28.289Z,1.40
2023-01-13T18:22:48.265Z,1.40
2023-01-13T18:27:08.588Z,1.98
2023-01-13T18:31:11.144Z,1.60
2023-01-13T18:35:15.090Z,1.30
2023-01-13T18:39:17.931Z,1.30
2023-01-13T18:43:20.488Z,1.15
2023-01-13T18:47:23.037Z,1.27
2023-01-13T18:51:26.851Z,1.30
2023-01-13T18:55:29.424Z,1.70
2023-01-13T18:59:33.097Z,1.33
2023-01-13T19:03:35.600Z,2.45
2023-01-13T19:07:39.631Z,1.60
2023-01-13T19:11:42.381Z,1.75
2023-01-13T19:15:44.938Z,1.87
2023-01-13T19:19:50.768Z,1.65
2023-01-13T19:23:55.496Z,1.52
2023-01-13T19:27:57.997Z,1.95
2023-01-13T19:32:00.518Z,1.20
2023-01-13T19:36:04.626Z,1.57
2023-01-13T19:40:10.602Z,1.23
2023-01-13T19:44:30.943Z,1.50
2023-01-13T19:48:33.648Z,1.48
2023-01-13T19:52:36.205Z,1.67
2023-01-13T19:56:40.058Z,1.97
2023-01-13T20:00:47.017Z,1.70
2023-01-13T20:04:49.595Z,1.50
2023-01-13T20:08:52.100Z,1.40
2023-01-13T20:12:55.903Z,1.80
2023-01-13T20:16:58.506Z,1.77
2023-01-13T20:21:03.872Z,1.63
2023-01-13T20:25:07.309Z,2.03
2023-01-13T20:33:13.663Z,1.98
2023-01-13T20:37:16.320Z,1.90
2023-01-13T20:41:48.096Z,2.00
2023-01-13T20:45:51.896Z,1.50
2023-01-13T20:49:54.758Z,1.88
2023-01-13T20:53:57.695Z,2.35
2023-01-13T20:58:00.180Z,1.73
2023-01-13T21:02:05.157Z,1.50
2023-01-13T21:06:08.137Z,1.70
2023-01-13T21:10:12.188Z,2.20
2023-01-13T21:14:34.178Z,1.63
2023-01-13T21:18:55.786Z,1.65
2023-01-13T21:22:58.342Z,1.40
2023-01-13T21:27:00.856Z,1.55
2023-01-13T21:31:05.170Z,1.80
2023-01-13T21:35:10.273Z,1.50
2023-01-13T21:39:15.330Z,1.50
2023-01-13T21:43:35.622Z,1.85
2023-01-13T21:47:50.267Z,1.40
2023-01-13T21:51:54.073Z,1.48
2023-01-13T21:55:56.666Z,1.80
2023-01-13T21:59:59.206Z,1.50
